Sommario della gara (Circuito: Adelaide | Stagione: 74 | Gara: 1 | Gruppo: Amateur - 67)

Stagione:  Gara:

Seleziona un altro gruppo:

Pos Progressi Gomme Naz. Nome Manager Tempo di gara Giri Pitstop Miglior giro Velocità media Miglior tempo ai Pit-stop
01. +3 +3 Pipirelli   Jose Ribas 1h43:55.143 79 2 1:15.463 172.40km/h 23.159s
02. -1 -1 Pipirelli   Yura Murashko + 16.185 79 2 1:16.715 171.96km/h 21.500s
03. +12 +12 Pipirelli   Jochen Vandenbroele + 16.665 79 2 1:16.395 171.94km/h 22.819s
04. +1 +1 Pipirelli   António Pereira + 18.066 79 2 1:16.759 171.91km/h 21.691s
05. +9 +9 Pipirelli   Tibor Járku + 18.298 79 2 1:16.595 171.90km/h 20.829s
06. -4 -4 Pipirelli   Petre Ionescu + 35.681 79 2 1:16.402 171.42km/h 25.228s
07. +4 +4 Pipirelli   Enrico Cerbaro + 46.619 79 2 1:17.272 171.12km/h 24.114s
08. +9 +9 Pipirelli   Davide Valenti + 51.227 79 2 1:15.683 171.00km/h 22.903s
09. -6 -6 Pipirelli   Pablo Gustavo + 53.251 79 2 1:16.931 170.94km/h 23.511s
10. +8 +8 Pipirelli   Massimiliano Fregni + 56.908 79 2 1:16.243 170.84km/h 21.176s
11. -1 -1 Pipirelli   Justin Valdez + 1:02.089 79 1 1:17.066 170.70km/h 22.775s
12. +4 +4 Pipirelli   Alexey Laktionov + 1:13.822 79 2 1:16.764 170.39km/h 24.849s
13. +11 +11 Pipirelli   Daniel Solorza + 1:18.766 78 2 1:17.108 170.25km/h 21.762s
14. +11 +11 Pipirelli   Agustin Alessandro + 1:19.284 78 2 1:16.703 170.24km/h 24.135s
15. +11 +11 Pipirelli   Jacques Wessels + 1:26.765 78 1 1:17.903 170.04km/h 24.741s
16. -9 -9 Pipirelli   Alexandre Faria + 1:28.647 78 2 1:16.459 169.99km/h 20.908s
17. -8 -8 Pipirelli   Hasan Shafi + 1:30.190 78 2 1:16.961 169.95km/h 23.872s
18. -5 -5 Pipirelli   Sylwester Sysak + 1:30.977 78 2 1:17.036 169.92km/h 24.632s
19. +3 +3 Pipirelli   Charles Shaw + 1:33.823 78 2 1:16.901 169.85km/h 21.843s
20. +9 +9 Pipirelli   Riccardo Mori + 1:33.844 78 2 1:16.878 169.85km/h 23.178s
21. -1 -1 Pipirelli   Cristian Rosas + 1:37.337 78 2 1:17.556 169.75km/h 21.902s
22. -14 -14 Pipirelli   Luca Senatore + 1:44.304 78 2 1:17.473 169.57km/h 20.698s
23. +9 +9 Pipirelli   Luciano Sales + 2:13.299 78 1 1:18.326 168.79km/h 26.011s
24. +4 +4 Pipirelli   Pedro Aleixo + 2:13.477 78 2 1:17.528 168.79km/h 23.904s
25. -2 -2 Pipirelli   Rangel Fuzaro + 2:13.676 78 2 1:17.000 168.78km/h 21.474s
26. +7 +7 Pipirelli   Alex Shimanovsky + 2:28.819 78 1 1:18.571 168.38km/h 27.612s
27. +4 +4 Pipirelli   Raymon Garcia + 2:29.143 78 1 1:17.321 168.38km/h 28.347s
28. +8 +8 Pipirelli   Ayhan Asanov + 2:55.670 77 2 1:17.739 167.68km/h 23.065s
29. +6 +6 Pipirelli   Grzech Browarnik + 3:00.740 77 2 1:18.122 167.55km/h 22.841s
30. -9 -9 Pipirelli   Kostas Katagas + 3:03.329 77 2 1:19.116 167.48km/h 22.069s
31. -4 -4 Pipirelli   Ben Marsh + 3:03.433 77 2 1:18.550 167.48km/h 22.121s
32. +5 +5 Pipirelli   Sakis Kampouris + 3:03.629 77 2 1:18.453 167.47km/h 22.791s
33. -21 -21 Pipirelli   Luca Foietta + 3:09.519 77 3 1:17.825 167.32km/h 22.276s
34. Nessun cambiamento ±0 Pipirelli   Mark Hibbert + 3:10.577 77 2 1:18.659 167.29km/h 22.580s
35. -16 -16 Pipirelli   Marcin Ciesielski + 3:18.151 77 3 1:18.086 167.09km/h 21.640s
36. -6 -6 Pipirelli   Ghislain Dagenais + 3:50.345 76 2 1:18.103 166.26km/h 25.524s
37. -31 -31 Pipirelli   Janos Keri + 6:16.392 75 2 1:19.190 162.59km/h 26.124s